createdAt,value
2023-02-02T00:01:33.587Z,2.97
2023-02-02T00:04:02.486Z,2.58
2023-02-02T00:06:30.648Z,2.83
2023-02-02T00:08:59.232Z,2.60
2023-02-02T00:11:38.117Z,3.45
2023-02-02T00:14:08.378Z,3.30
2023-02-02T00:16:37.695Z,3.78
2023-02-02T00:19:15.279Z,3.53
2023-02-02T00:21:42.787Z,2.85
2023-02-02T00:24:11.464Z,3.22
2023-02-02T00:26:40.020Z,2.72
2023-02-02T00:29:07.956Z,2.85
2023-02-02T00:31:34.888Z,2.55
2023-02-02T00:34:03.219Z,2.63
2023-02-02T00:36:29.736Z,2.60
2023-02-02T00:38:56.219Z,2.53
2023-02-02T00:41:29.257Z,2.63
2023-02-02T00:44:14.677Z,2.20
2023-02-02T00:46:43.497Z,2.20
2023-02-02T00:49:10.511Z,2.65
2023-02-02T00:51:40.281Z,2.67
2023-02-02T00:54:06.902Z,2.10
2023-02-02T00:56:33.636Z,2.47
2023-02-02T00:59:07.826Z,2.58
2023-02-02T01:01:34.489Z,2.30
2023-02-02T01:04:01.572Z,2.50
2023-02-02T01:06:32.944Z,2.15
2023-02-02T01:08:59.410Z,2.10
2023-02-02T01:11:26.000Z,2.17
2023-02-02T01:13:54.396Z,2.08
2023-02-02T01:16:22.781Z,2.35
2023-02-02T01:18:50.470Z,2.40
2023-02-02T01:21:17.430Z,2.97
2023-02-02T01:23:44.041Z,3.17
2023-02-02T01:26:12.143Z,2.90
2023-02-02T01:28:46.203Z,2.67
2023-02-02T01:31:15.504Z,2.30
2023-02-02T01:33:45.279Z,3.10
2023-02-02T01:36:15.279Z,2.80
2023-02-02T01:38:42.465Z,2.88
2023-02-02T01:41:18.420Z,2.83
2023-02-02T01:43:44.855Z,2.65
2023-02-02T01:46:15.350Z,3.13
2023-02-02T01:48:53.209Z,2.53
2023-02-02T01:51:24.176Z,2.90
2023-02-02T01:53:59.939Z,3.05
2023-02-02T01:59:06.778Z,2.88
2023-02-02T02:01:33.425Z,2.75
2023-02-02T02:04:01.927Z,2.83
2023-02-02T02:06:28.695Z,2.80
2023-02-02T02:09:03.515Z,2.40
2023-02-02T02:11:31.823Z,2.50
2023-02-02T02:14:19.819Z,2.42
2023-02-02T02:17:11.409Z,2.30
2023-02-02T02:20:39.119Z,3.03
2023-02-02T02:23:43.470Z,2.80
2023-02-02T02:26:33.740Z,2.67
2023-02-02T02:29:29.105Z,2.72
2023-02-02T02:32:06.113Z,2.58
2023-02-02T02:35:06.334Z,2.60
2023-02-02T02:37:39.116Z,2.92
2023-02-02T02:40:42.749Z,3.00
2023-02-02T02:43:24.429Z,2.10
2023-02-02T02:45:55.475Z,2.50
2023-02-02T02:48:22.715Z,2.40
2023-02-02T02:50:50.127Z,2.17
2023-02-02T02:53:22.315Z,2.20
2023-02-02T02:55:52.038Z,2.58
2023-02-02T02:58:40.217Z,2.30
2023-02-02T03:01:44.182Z,3.17
2023-02-02T03:04:40.664Z,3.08
2023-02-02T03:07:15.440Z,1.95
2023-02-02T03:09:46.296Z,2.22
2023-02-02T03:12:13.383Z,2.38
2023-02-02T03:14:39.863Z,2.30
2023-02-02T03:17:10.848Z,2.10
2023-02-02T03:19:37.378Z,2.40
2023-02-02T03:22:04.135Z,2.00
2023-02-02T03:24:32.596Z,2.50
2023-02-02T03:26:59.134Z,2.35
2023-02-02T03:29:25.675Z,2.33
2023-02-02T03:31:54.468Z,2.42
2023-02-02T03:34:23.221Z,2.40
2023-02-02T03:36:49.717Z,2.17
2023-02-02T03:39:16.414Z,2.55
2023-02-02T03:41:42.906Z,2.38
2023-02-02T03:44:11.768Z,1.85
2023-02-02T03:46:38.536Z,2.20
2023-02-02T03:49:05.023Z,1.70
2023-02-02T03:51:31.491Z,2.25
2023-02-02T03:53:58.141Z,2.10
2023-02-02T03:56:24.898Z,1.63
2023-02-02T03:58:51.467Z,2.60
2023-02-02T04:01:19.798Z,2.65
2023-02-02T04:03:46.404Z,2.15
2023-02-02T04:06:12.890Z,2.45
2023-02-02T04:08:44.595Z,2.50
2023-02-02T04:11:11.361Z,2.28
2023-02-02T04:13:38.157Z,2.35
2023-02-02T04:16:11.567Z,1.90
2023-02-02T04:18:38.484Z,2.20
2023-02-02T04:21:05.504Z,2.25
2023-02-02T04:23:40.820Z,1.90
2023-02-02T04:26:08.105Z,2.00
2023-02-02T04:28:35.345Z,1.83
2023-02-02T04:31:13.436Z,2.03
2023-02-02T04:33:41.199Z,1.90
2023-02-02T04:36:07.873Z,1.63
2023-02-02T04:38:34.635Z,2.15
2023-02-02T04:41:07.078Z,1.95
2023-02-02T04:43:34.819Z,2.10
2023-02-02T04:46:01.708Z,1.67
2023-02-02T04:48:28.237Z,1.85
2023-02-02T04:51:02.806Z,1.73
2023-02-02T04:53:29.956Z,1.88
2023-02-02T04:55:56.727Z,2.05
2023-02-02T04:58:32.081Z,2.00
2023-02-02T05:00:59.692Z,1.90
2023-02-02T05:03:26.184Z,1.50
2023-02-02T05:06:01.714Z,1.73
2023-02-02T05:08:28.555Z,1.52
2023-02-02T05:10:55.379Z,2.22
2023-02-02T05:13:22.005Z,1.70
2023-02-02T05:15:49.040Z,1.35
2023-02-02T05:18:17.779Z,1.45
2023-02-02T05:20:46.373Z,1.65
2023-02-02T05:23:12.903Z,1.98
2023-02-02T05:25:39.371Z,1.58
2023-02-02T05:28:07.808Z,2.20
2023-02-02T05:30:42.082Z,1.95
2023-02-02T05:33:10.524Z,1.67
2023-02-02T05:35:37.271Z,1.73
2023-02-02T05:38:04.015Z,1.95
2023-02-02T05:40:32.405Z,1.75
2023-02-02T05:43:00.918Z,2.13
2023-02-02T05:45:27.655Z,2.33
2023-02-02T05:47:55.837Z,2.03
2023-02-02T05:50:22.604Z,2.58
2023-02-02T05:52:49.650Z,2.03
2023-02-02T05:55:18.153Z,2.38
2023-02-02T05:57:44.734Z,2.30
2023-02-02T06:00:16.584Z,1.80
2023-02-02T06:02:45.279Z,1.95
2023-02-02T06:05:11.967Z,2.17
2023-02-02T06:07:38.536Z,2.03
2023-02-02T06:10:07.494Z,2.05
2023-02-02T06:12:34.255Z,2.15
2023-02-02T06:15:00.744Z,1.92
2023-02-02T06:17:27.776Z,1.90
2023-02-02T06:19:54.260Z,2.25
2023-02-02T06:22:20.763Z,2.67
2023-02-02T06:24:51.711Z,2.60
2023-02-02T06:27:18.253Z,2.20
2023-02-02T06:29:46.731Z,2.10
2023-02-02T06:32:15.477Z,2.50
2023-02-02T06:34:42.087Z,2.58
2023-02-02T06:37:08.622Z,2.53
2023-02-02T06:39:37.365Z,2.05
2023-02-02T06:42:20.099Z,2.50
2023-02-02T06:44:56.260Z,2.83
2023-02-02T06:47:22.782Z,2.30
2023-02-02T06:49:49.308Z,2.55
2023-02-02T06:52:15.939Z,2.83
2023-02-02T06:54:42.464Z,2.42
2023-02-02T06:57:09.586Z,2.42
2023-02-02T06:59:38.360Z,2.33
2023-02-02T07:02:04.903Z,2.75
2023-02-02T07:04:31.522Z,2.30
2023-02-02T07:06:58.280Z,2.35
2023-02-02T07:09:24.781Z,2.78
2023-02-02T07:11:51.266Z,2.30
2023-02-02T07:14:19.501Z,2.67
2023-02-02T07:16:45.972Z,2.08
2023-02-02T07:19:12.448Z,2.00
2023-02-02T07:21:40.816Z,2.33
2023-02-02T07:24:07.850Z,2.58
2023-02-02T07:26:36.173Z,2.15
2023-02-02T07:29:04.721Z,2.13
2023-02-02T07:31:31.397Z,2.35
2023-02-02T07:34:00.918Z,2.20
2023-02-02T07:36:27.592Z,2.15
2023-02-02T07:38:54.753Z,2.05
2023-02-02T07:41:22.150Z,2.15
2023-02-02T07:43:51.538Z,2.08
2023-02-02T07:46:21.102Z,2.30
2023-02-02T07:48:47.670Z,2.20
2023-02-02T07:51:16.858Z,2.15
2023-02-02T07:53:46.743Z,2.13
2023-02-02T07:56:22.465Z,2.38
2023-02-02T08:01:17.233Z,1.90
2023-02-02T08:03:44.729Z,2.15
2023-02-02T08:06:21.604Z,1.65
2023-02-02T08:08:50.681Z,2.20
2023-02-02T08:11:19.703Z,2.13
2023-02-02T08:13:49.954Z,2.50
2023-02-02T08:16:18.545Z,2.30
2023-02-02T08:18:45.360Z,1.80
2023-02-02T08:21:12.245Z,2.03
2023-02-02T08:23:44.176Z,2.28
2023-02-02T08:26:12.049Z,1.95
2023-02-02T08:28:40.275Z,2.08
2023-02-02T08:31:13.415Z,2.60
2023-02-02T08:33:40.105Z,2.30
2023-02-02T08:36:13.906Z,2.60
2023-02-02T08:38:43.352Z,2.35
2023-02-02T08:41:13.239Z,2.60
2023-02-02T08:43:40.518Z,2.80
2023-02-02T08:46:11.205Z,2.97
2023-02-02T08:48:38.498Z,2.60
2023-02-02T08:51:06.402Z,2.65
2023-02-02T08:53:38.139Z,2.08
2023-02-02T08:56:07.597Z,2.40
2023-02-02T08:58:40.121Z,2.45
2023-02-02T09:01:07.724Z,2.50
2023-02-02T09:03:34.943Z,2.15
2023-02-02T09:06:09.765Z,2.20
2023-02-02T09:08:36.876Z,2.90
2023-02-02T09:11:20.212Z,2.15
2023-02-02T09:13:51.709Z,2.15
2023-02-02T09:16:21.042Z,2.05
2023-02-02T09:18:49.717Z,2.38
2023-02-02T09:21:19.286Z,2.10
2023-02-02T09:23:47.576Z,2.15
2023-02-02T09:26:38.975Z,1.80
2023-02-02T09:29:11.496Z,1.90
2023-02-02T09:31:38.246Z,1.83
2023-02-02T09:34:08.675Z,1.80
2023-02-02T09:36:35.877Z,2.00
2023-02-02T09:39:03.241Z,1.90
2023-02-02T09:41:35.931Z,1.90
2023-02-02T09:44:22.584Z,1.58
2023-02-02T09:47:04.112Z,2.00
2023-02-02T09:49:56.673Z,1.73
2023-02-02T09:52:34.145Z,1.90
2023-02-02T09:55:25.087Z,1.63
2023-02-02T09:58:16.764Z,1.70
2023-02-02T10:00:54.266Z,1.92
2023-02-02T10:03:40.779Z,1.65
2023-02-02T10:06:31.012Z,1.42
2023-02-02T10:09:06.879Z,1.80
2023-02-02T10:11:36.165Z,1.50
2023-02-02T10:14:09.801Z,1.40
2023-02-02T10:16:39.727Z,1.85
2023-02-02T10:19:11.079Z,1.55
2023-02-02T10:22:03.829Z,1.30
2023-02-02T10:24:32.018Z,1.40
2023-02-02T10:27:04.476Z,1.60
2023-02-02T10:29:48.201Z,1.45
2023-02-02T10:32:34.143Z,1.65
2023-02-02T10:35:31.207Z,1.88
2023-02-02T10:38:15.468Z,1.70
2023-02-02T10:40:58.496Z,1.48
2023-02-02T10:43:46.266Z,1.40
2023-02-02T10:46:17.360Z,1.30
2023-02-02T10:48:47.125Z,1.10
2023-02-02T10:51:29.978Z,1.40
2023-02-02T10:54:05.090Z,1.58
2023-02-02T10:56:40.466Z,1.90
2023-02-02T10:59:17.949Z,1.83
2023-02-02T11:01:47.311Z,1.67
2023-02-02T11:04:32.995Z,2.08
2023-02-02T11:07:06.032Z,1.80
2023-02-02T11:09:39.519Z,1.52
2023-02-02T11:12:34.175Z,1.98
2023-02-02T11:15:05.246Z,1.70
2023-02-02T11:17:33.308Z,2.10
2023-02-02T11:20:00.253Z,1.95
2023-02-02T11:22:38.581Z,2.20
2023-02-02T11:25:10.275Z,1.70
2023-02-02T11:27:42.577Z,1.90
2023-02-02T11:30:27.791Z,2.03
2023-02-02T11:32:55.746Z,1.92
2023-02-02T11:35:27.298Z,1.73
2023-02-02T11:37:57.764Z,1.50
2023-02-02T11:40:45.244Z,1.60
2023-02-02T11:43:22.556Z,1.30
2023-02-02T11:46:02.601Z,1.65
2023-02-02T11:48:39.886Z,1.80
2023-02-02T11:51:07.767Z,1.63
2023-02-02T11:53:46.639Z,1.50
2023-02-02T11:56:27.327Z,1.98
2023-02-02T11:58:56.699Z,1.83
2023-02-02T12:01:25.003Z,1.83
2023-02-02T12:03:53.966Z,2.05
2023-02-02T12:06:24.829Z,1.70
2023-02-02T12:08:56.987Z,1.73
2023-02-02T12:11:37.332Z,1.90
2023-02-02T12:14:16.241Z,1.95
2023-02-02T12:16:59.295Z,2.13
2023-02-02T12:19:41.438Z,2.15
2023-02-02T12:22:23.019Z,1.70
2023-02-02T12:24:55.460Z,2.33
2023-02-02T12:27:29.567Z,2.15
2023-02-02T12:30:11.377Z,1.90
2023-02-02T12:32:51.197Z,1.95
2023-02-02T12:35:45.249Z,2.00
2023-02-02T12:38:43.216Z,1.70
2023-02-02T12:41:15.771Z,2.05
2023-02-02T12:43:46.113Z,1.63
2023-02-02T12:46:38.998Z,1.98
2023-02-02T12:49:49.528Z,2.08
2023-02-02T12:52:53.364Z,2.10
2023-02-02T12:55:38.172Z,1.58
2023-02-02T12:58:35.315Z,1.73
2023-02-02T13:01:19.363Z,2.05
2023-02-02T13:04:14.881Z,1.70
2023-02-02T13:07:09.817Z,2.10
2023-02-02T13:09:51.520Z,2.17
2023-02-02T13:12:29.701Z,1.85
2023-02-02T13:15:01.015Z,2.10
2023-02-02T13:17:38.865Z,1.77
2023-02-02T13:20:29.641Z,2.20
2023-02-02T13:23:05.155Z,2.20
2023-02-02T13:25:37.332Z,2.10
2023-02-02T13:28:07.363Z,1.88
2023-02-02T13:30:47.148Z,2.20
2023-02-02T13:33:23.951Z,2.13
2023-02-02T13:36:02.303Z,2.08
2023-02-02T13:38:30.696Z,1.67
2023-02-02T13:41:05.707Z,1.95
2023-02-02T13:43:54.677Z,2.13
2023-02-02T13:46:27.552Z,1.95
2023-02-02T13:49:15.527Z,1.80
2023-02-02T13:52:04.908Z,2.17
2023-02-02T13:54:40.605Z,2.17
2023-02-02T14:02:26.580Z,2.13
2023-02-02T14:04:59.380Z,1.98
2023-02-02T14:07:47.048Z,2.17
2023-02-02T14:10:33.728Z,1.88
2023-02-02T14:13:32.491Z,1.58
2023-02-02T14:16:02.184Z,1.70
2023-02-02T14:18:50.828Z,2.40
2023-02-02T14:21:32.793Z,2.28
2023-02-02T14:24:20.482Z,2.17
2023-02-02T14:26:49.995Z,1.70
2023-02-02T14:29:31.816Z,1.98
2023-02-02T14:32:04.543Z,1.88
2023-02-02T14:34:41.839Z,2.00
2023-02-02T14:37:22.458Z,2.15
2023-02-02T14:40:18.397Z,1.52
2023-02-02T14:43:38.416Z,1.88
2023-02-02T14:46:14.221Z,2.00
2023-02-02T14:49:09.361Z,2.30
2023-02-02T14:51:49.256Z,1.85
2023-02-02T14:54:38.760Z,1.77
2023-02-02T14:57:19.771Z,1.75
2023-02-02T14:59:47.387Z,2.08
2023-02-02T15:02:13.819Z,2.10
2023-02-02T15:04:44.517Z,1.60
2023-02-02T15:07:31.171Z,1.67
2023-02-02T15:09:58.207Z,1.83
2023-02-02T15:12:46.843Z,1.90
2023-02-02T15:15:29.771Z,2.10
2023-02-02T15:18:16.497Z,2.10
2023-02-02T15:20:49.833Z,1.50
2023-02-02T15:23:41.525Z,1.77
2023-02-02T15:26:25.012Z,1.65
2023-02-02T15:28:56.306Z,1.75
2023-02-02T15:31:32.346Z,1.80
2023-02-02T15:34:02.619Z,1.80
2023-02-02T15:36:33.947Z,1.95
2023-02-02T15:39:24.336Z,1.60
2023-02-02T15:42:12.407Z,2.03
2023-02-02T15:44:39.105Z,1.73
2023-02-02T15:47:13.025Z,1.45
2023-02-02T15:49:41.616Z,1.55
2023-02-02T15:52:39.073Z,1.65
2023-02-02T15:55:22.340Z,1.30
2023-02-02T15:57:49.888Z,1.80
2023-02-02T16:00:41.333Z,1.77
2023-02-02T16:03:18.803Z,1.60
2023-02-02T16:05:52.136Z,1.88
2023-02-02T16:08:24.826Z,1.83
2023-02-02T16:11:02.884Z,1.50
2023-02-02T16:13:30.153Z,1.80
2023-02-02T16:16:01.822Z,1.90
2023-02-02T16:18:36.187Z,1.67
2023-02-02T16:21:14.779Z,1.83
2023-02-02T16:23:48.009Z,2.78
2023-02-02T16:26:17.635Z,1.90
2023-02-02T16:28:46.614Z,2.42
2023-02-02T16:31:16.336Z,2.70
2023-02-02T16:33:44.665Z,2.30
2023-02-02T16:36:25.534Z,2.30
2023-02-02T16:38:53.995Z,2.03
2023-02-02T16:41:28.531Z,1.92
2023-02-02T16:43:55.453Z,1.77
2023-02-02T16:46:45.219Z,1.50
2023-02-02T16:49:22.786Z,2.00
2023-02-02T16:52:16.675Z,1.52
2023-02-02T16:54:52.209Z,1.70
2023-02-02T16:57:24.684Z,2.00
2023-02-02T16:59:54.262Z,1.83
2023-02-02T17:02:35.621Z,1.73
2023-02-02T17:05:24.844Z,1.90
2023-02-02T17:08:00.466Z,1.67
2023-02-02T17:10:40.023Z,1.60
2023-02-02T17:13:40.189Z,2.17
2023-02-02T17:16:07.384Z,1.42
2023-02-02T17:18:36.555Z,1.75
2023-02-02T17:21:11.940Z,1.70
2023-02-02T17:23:39.540Z,2.03
2023-02-02T17:26:08.804Z,1.65
2023-02-02T17:28:39.149Z,1.80
2023-02-02T17:31:12.013Z,1.83
2023-02-02T17:33:39.389Z,1.77
2023-02-02T17:36:10.645Z,1.92
2023-02-02T17:38:37.862Z,1.98
2023-02-02T17:41:04.791Z,1.77
2023-02-02T17:43:32.363Z,2.15
2023-02-02T17:45:59.126Z,2.25
2023-02-02T17:48:25.791Z,2.00
2023-02-02T17:50:52.500Z,2.13
2023-02-02T17:53:21.519Z,2.00
2023-02-02T17:55:51.587Z,1.92
2023-02-02T17:58:20.433Z,1.75
2023-02-02T18:00:55.543Z,1.88
2023-02-02T18:03:26.602Z,1.83
2023-02-02T18:05:53.175Z,1.92
2023-02-02T18:08:20.013Z,2.20
2023-02-02T18:10:48.285Z,1.73
2023-02-02T18:13:19.381Z,2.22
2023-02-02T18:15:46.156Z,2.20
2023-02-02T18:18:14.463Z,2.10
2023-02-02T18:20:42.495Z,2.10
2023-02-02T18:23:09.405Z,2.35
2023-02-02T18:25:42.737Z,2.28
2023-02-02T18:28:10.848Z,2.00
2023-02-02T18:30:40.932Z,2.15
2023-02-02T18:33:09.510Z,2.20
2023-02-02T18:35:42.910Z,2.50
2023-02-02T18:38:12.511Z,2.30
2023-02-02T18:40:39.009Z,2.55
2023-02-02T18:43:07.811Z,2.20
2023-02-02T18:45:36.175Z,2.00
2023-02-02T18:48:02.707Z,1.95
2023-02-02T18:50:29.288Z,2.13
2023-02-02T18:52:57.018Z,1.88
2023-02-02T18:55:26.188Z,1.63
2023-02-02T18:57:52.904Z,1.70
2023-02-02T19:00:21.696Z,1.90
2023-02-02T19:02:48.287Z,1.92
2023-02-02T19:05:34.792Z,1.75
2023-02-02T19:08:04.004Z,1.92
2023-02-02T19:10:31.117Z,1.55
2023-02-02T19:13:09.888Z,1.75
2023-02-02T19:15:42.246Z,2.03
2023-02-02T19:18:18.047Z,2.25
2023-02-02T19:20:45.428Z,1.83
2023-02-02T19:23:16.134Z,2.13
2023-02-02T19:25:49.471Z,2.00
2023-02-02T19:28:29.072Z,2.25
2023-02-02T19:31:00.391Z,1.67
2023-02-02T19:33:37.767Z,1.70
2023-02-02T19:36:07.439Z,2.30
2023-02-02T19:38:36.218Z,1.60
2023-02-02T19:41:02.721Z,1.55
2023-02-02T19:43:32.219Z,1.80
2023-02-02T19:46:00.103Z,1.63
2023-02-02T19:48:31.148Z,2.08
2023-02-02T19:50:59.187Z,1.60
2023-02-02T19:53:38.937Z,2.00
2023-02-02T19:56:24.732Z,1.80
2023-02-02T19:58:54.529Z,1.85
2023-02-02T20:01:23.832Z,1.90
2023-02-02T20:03:51.211Z,1.85
2023-02-02T20:06:23.998Z,1.65
2023-02-02T20:08:50.660Z,2.05
2023-02-02T20:11:34.165Z,2.08
2023-02-02T20:14:03.098Z,2.13
2023-02-02T20:16:44.991Z,2.00
2023-02-02T20:19:19.181Z,2.00
2023-02-02T20:21:48.504Z,2.00
2023-02-02T20:24:17.356Z,2.25
2023-02-02T20:26:44.432Z,2.20
2023-02-02T20:29:18.224Z,2.40
2023-02-02T20:31:46.341Z,1.95
2023-02-02T20:34:28.345Z,2.03
2023-02-02T20:37:14.042Z,1.80
2023-02-02T20:40:02.371Z,2.22
2023-02-02T20:42:30.091Z,2.10
2023-02-02T20:44:58.332Z,2.03
2023-02-02T20:47:24.973Z,2.22
2023-02-02T20:49:51.629Z,2.15
2023-02-02T20:52:23.594Z,2.38
2023-02-02T20:54:51.641Z,2.47
2023-02-02T20:57:18.520Z,2.65
2023-02-02T20:59:45.056Z,2.35
2023-02-02T21:02:20.807Z,2.58
2023-02-02T21:07:17.140Z,2.22
2023-02-02T21:09:44.842Z,2.38
2023-02-02T21:12:12.017Z,2.35
2023-02-02T21:14:39.074Z,2.72
2023-02-02T21:17:14.933Z,2.33
2023-02-02T21:19:42.248Z,2.70
2023-02-02T21:22:08.796Z,2.35
2023-02-02T21:24:35.310Z,2.63
2023-02-02T21:27:03.424Z,2.30
2023-02-02T21:29:31.768Z,3.08
2023-02-02T21:32:01.635Z,2.50
2023-02-02T21:34:29.331Z,3.22
2023-02-02T21:36:58.221Z,2.70
2023-02-02T21:39:43.373Z,3.00
2023-02-02T21:42:09.902Z,2.58
2023-02-02T21:44:52.200Z,2.15
2023-02-02T21:47:29.443Z,3.00
2023-02-02T21:50:01.844Z,2.47
2023-02-02T21:52:33.307Z,2.65
2023-02-02T21:55:17.028Z,2.25
2023-02-02T21:57:43.893Z,2.05
2023-02-02T22:00:31.082Z,2.17
2023-02-02T22:02:59.051Z,1.42
2023-02-02T22:05:40.881Z,2.35
2023-02-02T22:08:20.892Z,1.70
2023-02-02T22:10:47.956Z,2.00
2023-02-02T22:13:17.857Z,2.15
2023-02-02T22:15:47.346Z,1.65
2023-02-02T22:18:17.831Z,1.85
2023-02-02T22:20:47.171Z,1.58
2023-02-02T22:23:22.286Z,1.83
2023-02-02T22:25:53.171Z,1.88
2023-02-02T22:28:23.888Z,1.50
2023-02-02T22:30:55.291Z,1.63
2023-02-02T22:33:23.162Z,1.70
2023-02-02T22:35:49.927Z,1.63
2023-02-02T22:38:19.320Z,1.45
2023-02-02T22:40:46.559Z,1.70
2023-02-02T22:43:18.426Z,1.45
2023-02-02T22:45:45.767Z,1.80
2023-02-02T22:48:14.064Z,1.60
2023-02-02T22:50:45.564Z,1.33
2023-02-02T22:53:14.054Z,1.40
2023-02-02T22:55:43.510Z,1.48
2023-02-02T22:58:11.830Z,1.23
2023-02-02T23:00:38.383Z,1.10
2023-02-02T23:03:04.924Z,1.58
2023-02-02T23:05:33.335Z,1.20
2023-02-02T23:08:00.013Z,1.40
2023-02-02T23:10:29.542Z,1.10
2023-02-02T23:12:58.794Z,1.13
2023-02-02T23:15:26.277Z,1.40
2023-02-02T23:17:54.836Z,1.23
2023-02-02T23:20:21.906Z,1.48
2023-02-02T23:22:48.668Z,2.25
2023-02-02T23:25:16.260Z,1.40
2023-02-02T23:27:46.672Z,1.77
2023-02-02T23:30:14.239Z,1.35
2023-02-02T23:32:41.610Z,1.60
2023-02-02T23:35:10.780Z,1.48
2023-02-02T23:37:37.667Z,1.45
2023-02-02T23:40:04.909Z,1.60
2023-02-02T23:42:31.852Z,1.80
2023-02-02T23:44:58.317Z,1.35
2023-02-02T23:47:25.005Z,1.50
2023-02-02T23:49:51.670Z,1.40
2023-02-02T23:52:21.664Z,1.30
2023-02-02T23:54:48.253Z,1.40
2023-02-02T23:57:16.813Z,1.30
2023-02-02T23:59:43.327Z,1.00
